Eibar, Spain
Current Conditions -  °F | °C
As of 6:30 AM on Monday 22 Dec 2014 (Local Time) from LEVT Reporting Station
Moderate Fog Moderate Fog  
Wind Chill: 36°   Ceiling: 100
Heat Index: 36°   Visibility: 0.31mi
Dew Point: 36°   Wind: 2mph
Humidity: 100%   Direction: NA
Pressure: 30.48"   Gusts: NA
Location:  43.18°N, 2.47°W
Report Text: LEVT 220530Z VRB02KT 0500 R04/1000D FG BKN001 02/02 Q1032
Loading
Personal Weather Stations






























Interactive Weather Map New forecast layout! Learn more

10-Day Weather Forecast

Advertisements
Track Severe Weather on mobile